Time;durP1;ratioP1;P1;durP2;ratioP2;P2;SDS_P1;SDS_P2;PMS_P1;PMS_P2;Temp;Humidity;BMP_temperature;BMP_pressure;BME280_temperature;BME280_humidity;BME280_pressure;Samples;Min_cycle;Max_cycle;Signal;HPM_P1;HPM_P2
2022/03/02 00:01:14;;;;;;;22.67;17.65;;;13.70;58.70;;;;;;4883348;29;20496;-80
2022/03/02 00:03:41;;;;;;;21.30;17.50;;;13.70;58.50;;;;;;4837120;29;20482;-80
2022/03/02 00:06:09;;;;;;;20.88;17.25;;;13.70;58.60;;;;;;4852419;29;20048;-83
2022/03/02 00:08:35;;;;;;;22.73;18.20;;;13.70;58.60;;;;;;4867773;29;20161;-82
2022/03/02 00:11:00;;;;;;;19.58;17.20;;;13.70;58.70;;;;;;4867799;29;20463;-83
2022/03/02 00:13:26;;;;;;;22.27;17.83;;;13.70;58.60;;;;;;4868061;29;20386;-81
2022/03/02 00:15:52;;;;;;;21.42;18.33;;;13.70;58.60;;;;;;4883130;29;20102;-81
2022/03/02 00:18:17;;;;;;;21.10;16.75;;;13.70;58.50;;;;;;4868027;29;20045;-81
2022/03/02 00:20:43;;;;;;;20.95;17.73;;;13.70;58.50;;;;;;4867679;29;20546;-82
2022/03/02 00:23:09;;;;;;;22.58;18.13;;;13.60;58.50;;;;;;4867479;29;20433;-82
2022/03/02 00:25:35;;;;;;;25.63;18.55;;;13.60;58.50;;;;;;4882772;29;20076;-80
2022/03/02 00:28:01;;;;;;;23.40;17.83;;;13.60;58.60;;;;;;4883584;29;20128;-81
2022/03/02 00:30:28;;;;;;;21.98;17.50;;;13.60;58.70;;;;;;4867332;29;20459;-81
2022/03/02 00:32:55;;;;;;;21.45;16.50;;;13.50;58.70;;;;;;4855492;29;20120;-81
2022/03/02 00:35:21;;;;;;;21.73;17.80;;;13.50;58.80;;;;;;4848746;29;20122;-81
2022/03/02 00:37:46;;;;;;;22.45;18.20;;;13.50;58.90;;;;;;4833639;29;20372;-80
2022/03/02 00:40:13;;;;;;;21.35;17.65;;;13.40;58.80;;;;;;4849183;29;20037;-83
2022/03/02 00:42:39;;;;;;;22.00;18.30;;;13.40;58.90;;;;;;4848721;29;19935;-82
2022/03/02 00:45:05;;;;;;;21.73;17.88;;;13.40;58.90;;;;;;4848547;29;20391;-80
2022/03/02 00:47:32;;;;;;;23.80;18.80;;;13.40;58.90;;;;;;4833680;29;20409;-80
2022/03/02 00:49:58;;;;;;;24.05;18.65;;;13.50;59.10;;;;;;4848539;29;20049;-80
2022/03/02 00:52:24;;;;;;;23.20;18.48;;;13.50;59.10;;;;;;4848409;29;20041;-82
2022/03/02 00:54:49;;;;;;;22.98;17.17;;;13.50;59.60;;;;;;4863519;29;20045;-83
2022/03/02 00:57:15;;;;;;;24.27;17.75;;;13.40;59.00;;;;;;4848824;29;20068;-81
2022/03/02 00:59:41;;;;;;;21.60;16.75;;;13.40;59.00;;;;;;4848417;29;20047;-83
2022/03/02 01:02:07;;;;;;;22.77;17.55;;;13.50;59.10;;;;;;4847937;29;20455;-82
2022/03/02 01:04:32;;;;;;;24.50;18.67;;;13.60;59.00;;;;;;4848307;29;20056;-83
2022/03/02 01:06:58;;;;;;;21.52;17.20;;;13.60;58.80;;;;;;4848016;29;20052;-81
2022/03/02 01:09:24;;;;;;;21.13;17.85;;;13.60;58.70;;;;;;4848865;29;20421;-83
2022/03/02 01:11:50;;;;;;;22.92;18.00;;;13.60;58.60;;;;;;4833406;29;20132;-82
2022/03/02 01:14:16;;;;;;;23.65;18.50;;;13.60;58.50;;;;;;4833158;29;20101;-81
2022/03/02 01:16:41;;;;;;;23.38;17.90;;;13.70;58.40;;;;;;4847943;29;20132;-82
2022/03/02 01:19:07;;;;;;;23.45;18.25;;;13.60;58.30;;;;;;4848131;29;20050;-84
2022/03/02 01:21:33;;;;;;;25.40;17.55;;;13.60;58.30;;;;;;4848554;29;20045;-81
2022/03/02 01:23:59;;;;;;;23.23;17.52;;;13.60;58.30;;;;;;4832564;29;20052;-82
2022/03/02 01:26:26;;;;;;;23.23;17.02;;;13.50;58.30;;;;;;4866306;29;20037;-80
2022/03/02 01:28:54;;;;;;;22.85;18.05;;;13.40;58.50;;;;;;4866593;29;20048;-82
2022/03/02 01:31:24;;;;;;;21.60;17.08;;;13.40;58.60;;;;;;4866409;29;20053;-83
2022/03/02 01:33:51;;;;;;;21.98;17.58;;;13.40;58.60;;;;;;4866176;29;20057;-81
2022/03/02 01:36:18;;;;;;;23.58;17.63;;;13.40;58.80;;;;;;4850913;29;20060;-80
2022/03/02 01:38:45;;;;;;;22.63;17.50;;;13.40;58.80;;;;;;4866654;29;20041;-83
2022/03/02 01:41:16;;;;;;;24.52;18.27;;;13.40;58.70;;;;;;4881180;29;20076;-82
2022/03/02 01:43:43;;;;;;;22.88;17.15;;;13.40;58.70;;;;;;4866053;29;20051;-81
2022/03/02 01:46:10;;;;;;;23.85;18.58;;;13.40;58.60;;;;;;4866644;29;20041;-81
2022/03/02 01:48:36;;;;;;;23.50;18.05;;;13.40;58.60;;;;;;4866020;29;20381;-85
2022/03/02 01:51:02;;;;;;;22.80;17.60;;;13.40;58.70;;;;;;4866342;29;20504;-81
2022/03/02 01:53:28;;;;;;;22.55;17.13;;;13.40;58.70;;;;;;4866060;29;20109;-81
2022/03/02 01:55:58;;;;;;;25.05;18.13;;;13.50;58.70;;;;;;4865355;29;20048;-80
2022/03/02 01:58:24;;;;;;;21.58;16.30;;;13.40;58.60;;;;;;4865623;29;20064;-81
2022/03/02 02:00:51;;;;;;;22.48;18.17;;;13.40;58.70;;;;;;4882023;29;20045;-81
2022/03/02 02:03:17;;;;;;;24.08;16.65;;;13.40;58.50;;;;;;4853862;29;20106;-81
2022/03/02 02:06:00;;;;;;;20.85;16.40;;;13.40;58.60;;;;;;4846994;29;20133;-85
2022/03/02 02:08:29;;;;;;;22.30;16.98;;;13.40;58.60;;;;;;4832203;29;20106;-81
2022/03/02 02:10:57;;;;;;;22.83;17.88;;;13.40;58.60;;;;;;4847165;29;20137;-83
2022/03/02 02:13:27;;;;;;;22.10;17.40;;;13.40;58.40;;;;;;4877896;29;20052;-81
2022/03/02 02:15:54;;;;;;;23.33;17.45;;;13.40;58.50;;;;;;4847310;29;20132;-81
2022/03/02 02:18:20;;;;;;;24.27;17.95;;;13.40;58.60;;;;;;4847051;29;20045;-80
2022/03/02 02:20:46;;;;;;;24.45;18.33;;;13.30;58.60;;;;;;4847372;29;20057;-81
2022/03/02 02:23:12;;;;;;;24.45;18.17;;;13.40;58.70;;;;;;4847708;29;20045;-81
2022/03/02 02:25:39;;;;;;;23.88;17.85;;;13.30;58.70;;;;;;4847263;29;20078;-83
2022/03/02 02:28:07;;;;;;;22.65;16.83;;;13.30;58.60;;;;;;4847023;29;20102;-81
2022/03/02 02:30:33;;;;;;;24.35;18.17;;;13.30;58.60;;;;;;4846873;29;20045;-82
2022/03/02 02:32:58;;;;;;;22.50;16.80;;;13.40;58.80;;;;;;4832463;29;20117;-83
2022/03/02 02:35:25;;;;;;;23.23;17.80;;;13.30;58.80;;;;;;4846768;29;20053;-83
2022/03/02 02:37:51;;;;;;;24.92;17.95;;;13.30;58.80;;;;;;4831968;29;20045;-81
2022/03/02 02:40:19;;;;;;;24.10;17.88;;;13.30;58.80;;;;;;4846661;29;20120;-81
2022/03/02 02:42:47;;;;;;;24.63;17.98;;;13.30;58.80;;;;;;4862282;29;20484;-81
2022/03/02 02:45:17;;;;;;;23.67;16.95;;;13.30;58.70;;;;;;4877502;29;20061;-82
2022/03/02 02:47:53;;;;;;;23.38;17.67;;;13.40;58.70;;;;;;4840453;29;20067;-80
2022/03/02 02:50:29;;;;;;;23.60;17.77;;;13.30;58.60;;;;;;4880595;29;20124;-82
2022/03/02 02:53:00;;;;;;;22.88;16.40;;;13.40;58.60;;;;;;4865319;29;20041;-84
2022/03/02 02:55:28;;;;;;;23.10;17.58;;;13.40;58.50;;;;;;4864826;29;20108;-83
2022/03/02 02:57:55;;;;;;;25.30;19.00;;;13.40;58.40;;;;;;4850236;29;20064;-82
2022/03/02 03:00:22;;;;;;;23.35;17.27;;;13.40;58.30;;;;;;4847858;29;20057;-82
2022/03/02 03:02:50;;;;;;;24.48;19.40;;;13.30;58.20;;;;;;4849714;29;20036;-84
2022/03/02 03:05:20;;;;;;;26.30;19.45;;;13.30;58.20;;;;;;4849457;29;20055;-82
2022/03/02 03:07:46;;;;;;;22.92;17.48;;;13.30;58.10;;;;;;4864866;29;20045;-82
2022/03/02 03:10:14;;;;;;;22.27;16.63;;;13.30;58.10;;;;;;4849785;29;20109;-85
2022/03/02 03:12:42;;;;;;;24.80;19.27;;;13.30;58.10;;;;;;4880763;29;20045;-82
2022/03/02 03:15:09;;;;;;;26.92;19.75;;;13.20;58.00;;;;;;4849383;29;20049;-80
2022/03/02 03:17:35;;;;;;;24.98;18.35;;;13.10;57.80;;;;;;4856460;29;20042;-81
2022/03/02 03:20:02;;;;;;;26.05;18.27;;;13.10;58.10;;;;;;4846134;29;20483;-82
2022/03/02 03:22:28;;;;;;;24.85;19.13;;;13.10;58.10;;;;;;4861626;29;20066;-81
2022/03/02 03:24:54;;;;;;;25.52;18.70;;;13.00;58.20;;;;;;4849861;29;20053;-81
2022/03/02 03:27:19;;;;;;;27.08;19.98;;;13.00;58.30;;;;;;4834578;29;20041;-79
2022/03/02 03:29:45;;;;;;;25.55;18.98;;;13.00;58.30;;;;;;4849692;29;20046;-81
2022/03/02 03:32:11;;;;;;;27.17;19.33;;;13.00;58.10;;;;;;4849841;29;20045;-80
2022/03/02 03:34:37;;;;;;;27.15;19.23;;;13.00;58.10;;;;;;4849618;29;20136;-81
2022/03/02 03:37:03;;;;;;;26.00;19.95;;;13.10;58.10;;;;;;4865274;29;20133;-80
2022/03/02 03:39:29;;;;;;;28.15;20.63;;;13.00;57.90;;;;;;4865208;29;20148;-80
2022/03/02 03:41:55;;;;;;;25.42;20.02;;;13.10;57.80;;;;;;4834025;29;20049;-82
2022/03/02 03:44:24;;;;;;;30.27;21.15;;;13.10;57.80;;;;;;4850214;29;20475;-84
2022/03/02 03:46:50;;;;;;;28.60;20.67;;;13.10;57.60;;;;;;4850814;29;20060;-83
2022/03/02 03:49:17;;;;;;;28.90;20.52;;;13.10;57.50;;;;;;4834597;29;20053;-81
2022/03/02 03:51:42;;;;;;;29.48;20.50;;;13.10;57.40;;;;;;4849983;29;20403;-82
2022/03/02 03:54:09;;;;;;;28.08;19.90;;;13.00;57.40;;;;;;4833848;29;20137;-82
2022/03/02 03:56:34;;;;;;;29.05;20.85;;;13.00;57.50;;;;;;4834409;29;20056;-82
2022/03/02 03:59:01;;;;;;;28.23;20.00;;;12.90;57.70;;;;;;4864552;29;20049;-83
2022/03/02 04:01:27;;;;;;;29.73;20.45;;;13.00;57.50;;;;;;4849315;29;20136;-81
2022/03/02 04:03:53;;;;;;;27.17;20.23;;;13.00;57.50;;;;;;4864411;29;20082;-83
2022/03/02 04:06:19;;;;;;;28.52;20.30;;;12.90;57.40;;;;;;4880032;29;20041;-84
2022/03/02 04:08:46;;;;;;;29.13;20.38;;;12.90;57.50;;;;;;4865395;29;20046;-81
2022/03/02 04:11:12;;;;;;;29.02;20.10;;;12.80;57.50;;;;;;4849975;29;20073;-83
2022/03/02 04:13:38;;;;;;;28.73;20.75;;;12.80;57.70;;;;;;4849821;29;20091;-81
2022/03/02 04:16:05;;;;;;;29.35;20.38;;;12.80;57.80;;;;;;4849437;29;20049;-80
2022/03/02 04:18:34;;;;;;;29.75;20.30;;;12.80;57.80;;;;;;4864397;29;20053;-81
2022/03/02 04:21:00;;;;;;;28.55;20.65;;;12.80;57.80;;;;;;4864402;29;20042;-80
2022/03/02 04:23:27;;;;;;;28.52;20.27;;;12.80;57.80;;;;;;4865337;29;20049;-82
2022/03/02 04:25:53;;;;;;;31.05;20.90;;;12.80;57.90;;;;;;4879853;29;20049;-83
2022/03/02 04:28:19;;;;;;;31.45;21.05;;;12.80;57.80;;;;;;4833640;29;20106;-84
2022/03/02 04:30:46;;;;;;;27.45;19.92;;;12.80;57.60;;;;;;4864457;29;20364;-81
2022/03/02 04:33:12;;;;;;;27.60;19.65;;;12.80;57.60;;;;;;4864269;29;20140;-82
2022/03/02 04:35:38;;;;;;;28.95;20.40;;;12.80;57.50;;;;;;4847291;29;20061;-83
2022/03/02 04:38:04;;;;;;;31.40;21.38;;;12.80;57.50;;;;;;4848492;29;20136;-81
2022/03/02 04:40:31;;;;;;;29.40;19.73;;;12.70;57.50;;;;;;4863991;29;20132;-80
2022/03/02 04:42:57;;;;;;;30.10;20.20;;;12.70;57.60;;;;;;4863856;29;20113;-79
2022/03/02 04:45:27;;;;;;;30.05;19.60;;;12.70;57.60;;;;;;4879396;29;20045;-79
2022/03/02 04:47:58;;;;;;;32.30;21.73;;;12.70;57.70;;;;;;4852022;29;20100;-80
2022/03/02 04:50:25;;;;;;;28.27;20.83;;;12.70;57.70;;;;;;4856409;29;20442;-81
2022/03/02 04:52:52;;;;;;;35.10;21.65;;;12.60;57.60;;;;;;4832860;29;20471;-77
2022/03/02 04:55:18;;;;;;;37.10;24.00;;;12.70;57.50;;;;;;4862563;29;20057;-80
2022/03/02 04:57:46;;;;;;;37.22;25.92;;;12.70;55.90;;;;;;4864164;29;20056;-77
2022/03/02 05:00:34;;;;;;;38.20;26.17;;;12.70;54.60;;;;;;4864255;29;20464;-78
2022/03/02 05:03:02;;;;;;;38.28;26.45;;;12.60;53.80;;;;;;4865878;29;20076;-79
2022/03/02 05:05:31;;;;;;;37.50;25.75;;;12.50;53.60;;;;;;4863968;29;20094;-77
2022/03/02 05:07:58;;;;;;;38.55;26.10;;;12.40;53.40;;;;;;4863954;29;20057;-78
2022/03/02 05:10:24;;;;;;;39.05;26.40;;;12.40;53.30;;;;;;4860061;29;20081;-79
2022/03/02 05:12:50;;;;;;;41.28;26.77;;;12.30;53.20;;;;;;4879289;29;20064;-81
2022/03/02 05:15:17;;;;;;;38.30;25.23;;;12.20;53.20;;;;;;4863617;29;20045;-82
2022/03/02 05:17:44;;;;;;;37.50;25.58;;;12.10;53.80;;;;;;4863259;29;20047;-82
2022/03/02 05:20:11;;;;;;;34.28;23.67;;;12.20;54.40;;;;;;4863515;29;20048;-80
2022/03/02 05:22:37;;;;;;;32.03;22.75;;;12.20;54.60;;;;;;4863763;29;20056;-84
2022/03/02 05:25:05;;;;;;;32.65;22.30;;;12.30;54.50;;;;;;4847764;29;20045;-81
2022/03/02 05:27:31;;;;;;;28.42;20.52;;;12.60;54.60;;;;;;4847976;29;20052;-83
2022/03/02 05:29:57;;;;;;;28.63;19.70;;;12.80;54.40;;;;;;4847870;29;20041;-81
2022/03/02 05:32:23;;;;;;;28.65;18.80;;;13.20;54.30;;;;;;4867942;29;20037;-82
2022/03/02 05:34:51;;;;;;;24.45;18.08;;;13.40;54.00;;;;;;4866034;29;20076;-83
2022/03/02 05:37:19;;;;;;;25.50;17.60;;;13.70;53.70;;;;;;4881917;29;20056;-84
2022/03/02 05:39:45;;;;;;;24.20;16.75;;;13.80;53.60;;;;;;4866303;29;20049;-76
2022/03/02 05:42:11;;;;;;;22.23;15.05;;;13.90;53.70;;;;;;4882600;29;20052;-77
2022/03/02 05:44:36;;;;;;;20.35;14.13;;;14.10;53.80;;;;;;4865953;29;20489;-79
2022/03/02 05:47:06;;;;;;;25.33;15.00;;;14.20;53.80;;;;;;4881074;29;20120;-84
2022/03/02 05:49:31;;;;;;;20.70;14.18;;;14.40;53.70;;;;;;4882432;29;20071;-78
2022/03/02 05:51:57;;;;;;;26.63;15.02;;;14.50;53.50;;;;;;4882536;29;20419;-78
2022/03/02 05:54:23;;;;;;;24.38;13.38;;;14.60;53.70;;;;;;4882537;29;20467;-81
2022/03/02 05:56:49;;;;;;;22.92;13.82;;;14.80;54.00;;;;;;4882384;29;20053;-78
2022/03/02 05:59:16;;;;;;;23.20;14.13;;;14.90;54.20;;;;;;4882323;29;20052;-75
2022/03/02 06:01:44;;;;;;;21.33;12.43;;;14.90;54.20;;;;;;4880470;29;20041;-80
2022/03/02 06:04:11;;;;;;;21.65;11.07;;;15.00;54.00;;;;;;4881490;29;20129;-77
2022/03/02 06:06:37;;;;;;;23.67;11.95;;;15.00;55.00;;;;;;4865638;29;20044;-80
2022/03/02 06:09:06;;;;;;;21.50;12.43;;;15.10;55.60;;;;;;4881062;29;20432;-77
2022/03/02 06:11:33;;;;;;;16.45;10.13;;;15.20;55.20;;;;;;4882281;29;20052;-79
2022/03/02 06:13:59;;;;;;;16.17;9.60;;;15.30;55.60;;;;;;4881708;29;20045;-79
2022/03/02 06:16:25;;;;;;;19.98;10.90;;;15.30;55.80;;;;;;4881345;29;20332;-78
2022/03/02 06:18:52;;;;;;;17.65;10.07;;;15.40;56.30;;;;;;4865515;29;20053;-79
2022/03/02 06:21:23;;;;;;;16.73;10.13;;;15.50;55.70;;;;;;4881679;29;20057;-80
2022/03/02 06:23:49;;;;;;;15.25;9.35;;;15.60;55.60;;;;;;4879067;29;20053;-82
2022/03/02 06:26:15;;;;;;;16.40;8.40;;;15.60;55.50;;;;;;4880993;29;20047;-80
2022/03/02 06:28:40;;;;;;;14.02;8.27;;;15.70;55.50;;;;;;4880767;29;20124;-81
2022/03/02 06:31:07;;;;;;;18.25;10.60;;;15.80;55.50;;;;;;4881027;29;20057;-80
2022/03/02 06:33:33;;;;;;;19.90;10.30;;;15.80;55.90;;;;;;4851281;29;20049;-81
2022/03/02 06:35:58;;;;;;;16.15;8.43;;;15.80;56.10;;;;;;4863352;29;20076;-78
2022/03/02 06:38:27;;;;;;;14.15;8.82;;;15.80;56.00;;;;;;4846500;29;20463;-84
2022/03/02 06:41:25;;;;;;;17.95;10.80;;;15.90;56.20;;;;;;4846444;29;20052;-81
2022/03/02 06:44:05;;;;;;;16.45;8.27;;;15.30;56.10;;;;;;4859934;29;20046;-79
2022/03/02 06:46:36;;;;;;;14.35;8.77;;;15.60;57.70;;;;;;4876717;29;20045;-73
2022/03/02 06:49:08;;;;;;;17.83;10.43;;;15.70;57.80;;;;;;4862786;29;20120;-76
2022/03/02 06:51:39;;;;;;;20.75;9.73;;;15.90;57.70;;;;;;4862731;29;20128;-78
2022/03/02 06:54:10;;;;;;;19.65;11.95;;;16.00;57.50;;;;;;4862492;29;20054;-82
2022/03/02 06:56:48;;;;;;;29.02;12.30;;;16.10;56.80;;;;;;4831117;29;20093;-80
2022/03/02 06:59:23;;;;;;;22.95;12.95;;;16.20;56.40;;;;;;4845693;29;20050;-84
2022/03/02 07:02:04;;;;;;;17.85;10.82;;;16.20;56.10;;;;;;4846025;29;20140;-83
2022/03/02 07:08:54;;;;;;;20.70;10.10;;;16.50;56.10;;;;;;4739751;29;20466;-83
2022/03/02 07:11:25;;;;;;;22.45;10.25;;;16.70;55.80;;;;;;4790486;29;20088;-83
2022/03/02 07:14:42;;;;;;;16.48;8.63;;;16.70;55.60;;;;;;4775557;29;20142;-84
2022/03/02 07:18:17;;;;;;;;;;;;;;;;;;;;;
2022/03/02 07:32:45;;;;;;;;;;;;;;;;;;;;;
2022/03/02 07:35:57;;;;;;;13.32;8.45;;;16.40;55.40;;;;;;4637661;30;20059;-81
2022/03/02 07:38:37;;;;;;;14.02;9.57;;;16.30;55.30;;;;;;4647927;30;20070;-82
2022/03/02 07:41:08;;;;;;;11.13;8.05;;;16.20;55.70;;;;;;4705547;30;20051;-76
2022/03/02 07:43:36;;;;;;;16.52;8.68;;;16.20;56.10;;;;;;4770486;30;20111;-79
2022/03/02 07:46:04;;;;;;;11.82;8.30;;;16.10;56.00;;;;;;4779802;29;20619;-78
2022/03/02 07:48:30;;;;;;;12.98;8.38;;;16.10;56.00;;;;;;4776204;29;20119;-77
2022/03/02 07:50:57;;;;;;;12.85;8.63;;;16.00;55.90;;;;;;4804937;29;20050;-82
2022/03/02 07:53:26;;;;;;;12.20;8.57;;;15.90;55.90;;;;;;4829919;29;20095;-80
2022/03/02 07:55:53;;;;;;;14.55;8.88;;;15.90;56.00;;;;;;4864868;29;20037;-81
2022/03/02 07:58:20;;;;;;;12.32;8.55;;;15.90;56.10;;;;;;4860831;29;20882;-80
2022/03/02 08:00:52;;;;;;;11.73;7.97;;;15.80;56.30;;;;;;4858676;29;20234;-80
2022/03/02 08:03:19;;;;;;;12.88;8.10;;;15.80;56.60;;;;;;4860596;29;20060;-79
2022/03/02 08:05:45;;;;;;;12.43;8.02;;;15.80;56.80;;;;;;4847400;29;20046;-77
2022/03/02 08:08:14;;;;;;;14.32;8.73;;;15.80;56.90;;;;;;4877584;29;20412;-80
2022/03/02 08:10:42;;;;;;;16.30;8.45;;;15.80;57.20;;;;;;4883650;29;20368;-73
2022/03/02 08:13:10;;;;;;;12.10;7.97;;;15.80;57.50;;;;;;4883536;29;20117;-78
2022/03/02 08:15:37;;;;;;;14.38;8.68;;;15.80;57.30;;;;;;4883953;29;20053;-73
2022/03/02 08:18:03;;;;;;;14.68;8.05;;;15.70;57.40;;;;;;4884376;29;20379;-77
2022/03/02 08:20:29;;;;;;;13.70;7.78;;;15.80;57.50;;;;;;4884019;29;20053;-73
2022/03/02 08:22:56;;;;;;;14.07;8.25;;;15.80;57.50;;;;;;4884098;29;20060;-76
2022/03/02 08:25:23;;;;;;;13.48;7.55;;;15.80;57.50;;;;;;4884268;29;20352;-77
2022/03/02 08:27:51;;;;;;;12.65;7.68;;;15.90;57.50;;;;;;4872213;29;20125;-77
2022/03/02 08:30:17;;;;;;;11.60;7.90;;;15.90;57.50;;;;;;4867558;29;20067;-76
2022/03/02 08:32:46;;;;;;;10.38;7.35;;;16.00;57.50;;;;;;4878225;29;20045;-79
2022/03/02 08:35:12;;;;;;;11.63;6.78;;;16.10;57.60;;;;;;4865326;29;20053;-78
2022/03/02 08:37:40;;;;;;;10.80;7.65;;;15.90;59.60;;;;;;4864749;29;20092;-77
2022/03/02 08:40:08;;;;;;;12.48;6.85;;;15.50;61.20;;;;;;4848928;29;20133;-78
2022/03/02 08:42:34;;;;;;;11.80;7.10;;;15.20;56.70;;;;;;4863074;29;20060;-77
2022/03/02 08:45:00;;;;;;;10.30;6.80;;;15.30;59.30;;;;;;4873696;29;20045;-77
2022/03/02 08:47:27;;;;;;;8.77;6.13;;;15.60;59.30;;;;;;4864365;29;20145;-77
2022/03/02 08:49:56;;;;;;;9.02;6.28;;;15.80;58.80;;;;;;4866991;29;20053;-78
2022/03/02 08:52:29;;;;;;;12.13;6.13;;;15.90;58.40;;;;;;4883471;29;20045;-76
2022/03/02 08:54:56;;;;;;;10.23;6.03;;;16.10;58.70;;;;;;4866492;29;20108;-75
2022/03/02 08:57:23;;;;;;;7.72;5.70;;;16.30;57.80;;;;;;4883314;29;20048;-79
2022/03/02 08:59:53;;;;;;;12.40;6.53;;;16.40;57.50;;;;;;4883510;29;20060;-79
2022/03/02 09:02:21;;;;;;;15.30;6.97;;;16.50;57.30;;;;;;4883481;29;20099;-78
2022/03/02 09:04:47;;;;;;;13.98;6.50;;;16.50;57.20;;;;;;4883330;29;20112;-78
2022/03/02 09:07:16;;;;;;;13.18;7.05;;;16.50;56.80;;;;;;4882759;29;20459;-79
2022/03/02 09:09:41;;;;;;;12.18;7.45;;;16.50;56.70;;;;;;4867378;29;20061;-79
2022/03/02 09:12:11;;;;;;;10.45;6.95;;;16.50;56.80;;;;;;4866792;29;20063;-79
2022/03/02 09:14:38;;;;;;;11.10;6.70;;;16.40;56.70;;;;;;4883179;29;20082;-79
2022/03/02 09:17:05;;;;;;;11.02;7.18;;;16.40;56.70;;;;;;4883488;29;20120;-80
2022/03/02 09:19:32;;;;;;;12.73;6.95;;;16.40;56.70;;;;;;4866907;29;20049;-78
2022/03/02 09:21:58;;;;;;;10.48;6.75;;;16.40;56.80;;;;;;4865135;29;20065;-79
2022/03/02 09:24:29;;;;;;;11.85;6.47;;;16.30;56.70;;;;;;4880929;29;20101;-79
2022/03/02 09:26:57;;;;;;;13.23;7.30;;;16.30;56.70;;;;;;4883222;29;20060;-79
2022/03/02 09:29:28;;;;;;;11.90;7.20;;;16.20;56.70;;;;;;4882529;29;20053;-78
2022/03/02 09:31:57;;;;;;;10.45;7.38;;;16.20;56.90;;;;;;4866577;29;20463;-79
2022/03/02 09:34:26;;;;;;;9.32;6.68;;;16.20;57.30;;;;;;4882574;29;20057;-78
2022/03/02 09:36:55;;;;;;;9.32;6.78;;;16.20;57.60;;;;;;4863031;29;20479;-80
2022/03/02 09:39:23;;;;;;;10.27;7.13;;;16.10;57.80;;;;;;4863907;29;20069;-78
2022/03/02 09:41:54;;;;;;;9.98;7.22;;;16.10;58.10;;;;;;4863067;29;20049;-78
2022/03/02 09:44:21;;;;;;;12.60;7.22;;;16.10;58.20;;;;;;4864148;29;20057;-78
2022/03/02 09:46:56;;;;;;;9.77;7.22;;;16.00;58.30;;;;;;4863934;29;20064;-79
2022/03/02 09:49:27;;;;;;;9.05;7.07;;;16.00;58.40;;;;;;4863925;29;20050;-79
2022/03/02 09:52:03;;;;;;;8.73;6.57;;;16.00;58.60;;;;;;4863255;29;20060;-79
2022/03/02 09:54:29;;;;;;;10.60;7.18;;;16.00;58.60;;;;;;4846438;29;20086;-78
2022/03/02 09:56:56;;;;;;;9.05;6.80;;;15.90;59.40;;;;;;4845512;29;20057;-78
2022/03/02 09:59:25;;;;;;;8.60;6.72;;;15.90;58.90;;;;;;4845425;29;20053;-79
2022/03/02 10:01:52;;;;;;;9.25;7.03;;;15.90;59.00;;;;;;4845011;29;20425;-78
2022/03/02 10:04:22;;;;;;;9.70;7.22;;;15.90;59.10;;;;;;4863784;29;20152;-77
2022/03/02 10:06:55;;;;;;;11.13;7.10;;;15.90;59.20;;;;;;4863751;29;20053;-79
2022/03/02 10:09:21;;;;;;;11.48;7.95;;;15.90;59.20;;;;;;4863978;29;20075;-79
2022/03/02 10:11:49;;;;;;;10.38;7.63;;;15.80;59.20;;;;;;4863375;29;20100;-78
2022/03/02 10:14:18;;;;;;;10.85;7.57;;;15.90;59.20;;;;;;4863458;29;20049;-79
2022/03/02 10:16:46;;;;;;;11.32;7.43;;;15.90;59.30;;;;;;4863504;29;20069;-78
2022/03/02 10:19:24;;;;;;;9.88;7.20;;;15.80;59.20;;;;;;4863449;29;20053;-78
2022/03/02 10:22:27;;;;;;;10.52;7.07;;;15.80;59.10;;;;;;4863140;29;20113;-80
2022/03/02 10:25:02;;;;;;;9.13;6.85;;;15.80;59.00;;;;;;4863309;29;20045;-78
2022/03/02 10:27:43;;;;;;;9.93;6.95;;;15.80;58.90;;;;;;4863397;29;20057;-78
2022/03/02 10:30:11;;;;;;;8.63;6.57;;;15.80;58.70;;;;;;4861243;29;20120;-79
2022/03/02 10:32:40;;;;;;;11.45;7.22;;;15.80;59.10;;;;;;4863881;29;20406;-78
2022/03/02 10:35:13;;;;;;;9.02;7.00;;;15.80;59.00;;;;;;4863031;29;20049;-81
2022/03/02 10:37:53;;;;;;;9.40;7.00;;;15.70;58.60;;;;;;4877151;29;20057;-78
2022/03/02 10:40:24;;;;;;;9.60;6.93;;;15.70;58.50;;;;;;4880327;29;20475;-76
2022/03/02 10:42:57;;;;;;;11.88;6.75;;;15.80;57.90;;;;;;4878219;29;20384;-79
2022/03/02 10:45:29;;;;;;;9.00;6.60;;;15.80;57.70;;;;;;4856574;29;20460;-80
2022/03/02 10:48:10;;;;;;;8.75;6.50;;;15.80;57.50;;;;;;4881628;29;20364;-79
2022/03/02 10:50:38;;;;;;;8.82;6.05;;;15.90;57.60;;;;;;4844581;29;20149;-82
2022/03/02 10:53:07;;;;;;;8.88;6.00;;;15.90;57.50;;;;;;4828543;29;20358;-79
2022/03/02 10:55:34;;;;;;;7.72;6.07;;;16.00;57.60;;;;;;4844223;29;20080;-79
2022/03/02 10:58:04;;;;;;;8.85;5.93;;;16.10;57.50;;;;;;4844003;29;20049;-79
2022/03/02 11:00:31;;;;;;;7.82;5.63;;;16.10;57.40;;;;;;4844100;29;20471;-80
2022/03/02 11:02:59;;;;;;;8.52;6.20;;;16.20;57.40;;;;;;4844226;29;20064;-79
2022/03/02 11:05:27;;;;;;;8.32;6.35;;;16.20;57.40;;;;;;4828422;29;20062;-78
2022/03/02 11:07:53;;;;;;;8.57;6.20;;;16.20;57.40;;;;;;4853267;29;20048;-78
2022/03/02 11:10:20;;;;;;;9.18;6.05;;;16.20;57.50;;;;;;4880220;29;20041;-79
2022/03/02 11:12:48;;;;;;;8.02;6.07;;;16.20;57.40;;;;;;4880812;29;20097;-79
2022/03/02 11:15:16;;;;;;;8.15;6.05;;;16.20;57.50;;;;;;4865064;29;20081;-78
2022/03/02 11:17:52;;;;;;;9.85;6.30;;;16.30;57.70;;;;;;4881215;29;20056;-78
2022/03/02 11:20:19;;;;;;;10.98;5.80;;;16.30;57.90;;;;;;4879862;29;20378;-78
2022/03/02 11:22:55;;;;;;;8.18;5.93;;;16.20;58.40;;;;;;4880907;29;20056;-78
2022/03/02 11:25:44;;;;;;;8.30;6.03;;;16.30;58.40;;;;;;4864798;29;20060;-78
2022/03/02 11:28:16;;;;;;;8.15;5.53;;;16.20;58.50;;;;;;4881140;29;20059;-79
2022/03/02 11:31:06;;;;;;;11.50;6.22;;;16.20;58.60;;;;;;4864658;29;20049;-78
2022/03/02 11:33:32;;;;;;;7.43;5.57;;;16.20;58.50;;;;;;4871448;29;20364;-78
2022/03/02 11:36:07;;;;;;;9.35;6.10;;;16.20;59.00;;;;;;4864708;29;20458;-78
2022/03/02 11:38:33;;;;;;;8.30;5.65;;;16.20;58.80;;;;;;4846546;29;20450;-78
2022/03/02 11:41:00;;;;;;;7.47;5.65;;;16.20;58.90;;;;;;4861424;29;20059;-78
2022/03/02 11:43:32;;;;;;;11.02;6.20;;;16.10;58.90;;;;;;4861464;29;20132;-79
2022/03/02 11:46:09;;;;;;;8.23;6.03;;;16.10;58.90;;;;;;4865585;29;20093;-79
2022/03/02 11:48:40;;;;;;;8.50;6.40;;;16.10;58.40;;;;;;4880888;29;20372;-79
2022/03/02 11:51:25;;;;;;;9.52;6.20;;;16.10;58.40;;;;;;4863949;29;20087;-78
2022/03/02 11:53:54;;;;;;;9.40;6.32;;;16.00;58.30;;;;;;4865227;29;20128;-78
2022/03/02 11:56:23;;;;;;;9.05;6.22;;;16.00;58.40;;;;;;4877961;29;20455;-78
2022/03/02 11:59:02;;;;;;;8.80;6.03;;;16.00;58.40;;;;;;4865746;29;20045;-78
2022/03/02 12:01:45;;;;;;;7.80;5.80;;;16.00;58.20;;;;;;4866705;29;20132;-78
2022/03/02 12:04:14;;;;;;;9.02;5.75;;;16.00;58.10;;;;;;4884531;29;20144;-77
2022/03/02 12:06:44;;;;;;;9.35;6.00;;;16.00;58.00;;;;;;4868611;29;20057;-79
2022/03/02 12:09:23;;;;;;;8.00;6.35;;;16.00;57.90;;;;;;4884658;29;20113;-79
2022/03/02 12:11:49;;;;;;;7.00;5.55;;;16.00;57.80;;;;;;4884215;29;20052;-78
2022/03/02 12:14:15;;;;;;;7.80;6.32;;;16.00;57.90;;;;;;4883956;29;20336;-79
2022/03/02 12:16:43;;;;;;;10.57;6.78;;;16.00;57.80;;;;;;4884451;29;20049;-78
2022/03/02 12:19:30;;;;;;;14.38;11.35;;;16.10;57.90;;;;;;4883843;29;20131;-77
2022/03/02 12:22:05;;;;;;;17.92;13.35;;;16.10;56.70;;;;;;4882706;29;20399;-78
2022/03/02 12:24:33;;;;;;;20.27;15.80;;;16.10;55.70;;;;;;4872829;29;20053;-78
2022/03/02 12:27:08;;;;;;;23.67;15.95;;;16.10;54.80;;;;;;4869752;29;20064;-76
2022/03/02 12:29:39;;;;;;;23.63;16.60;;;16.10;54.10;;;;;;4881484;29;20073;-77
2022/03/02 12:32:05;;;;;;;22.10;16.88;;;16.00;53.20;;;;;;4883681;29;20070;-77
2022/03/02 12:34:40;;;;;;;20.02;16.70;;;16.00;53.10;;;;;;4882793;29;20497;-77
2022/03/02 12:37:06;;;;;;;19.52;15.75;;;16.00;53.10;;;;;;4883290;29;20121;-77
2022/03/02 12:39:33;;;;;;;20.15;15.77;;;16.00;53.50;;;;;;4882795;29;20048;-80
2022/03/02 12:42:02;;;;;;;21.95;14.85;;;15.90;53.80;;;;;;4877684;29;20045;-80
2022/03/02 12:44:29;;;;;;;20.63;14.02;;;15.90;53.80;;;;;;4864997;29;20125;-80
2022/03/02 12:47:00;;;;;;;18.70;14.68;;;15.90;54.00;;;;;;4864815;29;20060;-76
2022/03/02 12:49:27;;;;;;;20.10;13.93;;;15.90;54.30;;;;;;4863815;29;20057;-80
2022/03/02 12:51:57;;;;;;;18.83;13.07;;;15.90;54.60;;;;;;4865045;29;20053;-80
2022/03/02 12:54:23;;;;;;;17.67;12.93;;;15.80;54.80;;;;;;4864852;29;20064;-80
2022/03/02 12:56:50;;;;;;;16.02;12.75;;;15.80;55.00;;;;;;4862910;29;20057;-78
2022/03/02 12:59:17;;;;;;;18.02;12.90;;;15.80;55.30;;;;;;4865061;29;20057;-76
2022/03/02 13:01:45;;;;;;;18.40;12.73;;;15.80;55.50;;;;;;4863901;29;20053;-76